Time;durP1;ratioP1;P1;durP2;ratioP2;P2;SDS_P1;SDS_P2;PMS_P1;PMS_P2;Temp;Humidity;BMP_temperature;BMP_pressure;BME280_temperature;BME280_humidity;BME280_pressure;Samples;Min_cycle;Max_cycle;Signal;HPM_P1;HPM_P2
2023/07/10 11:57:22;;;;;;;1.63;1.30;;;;;;;28.48;25.97;100370.44;4292898;28;20575;-72
2023/07/10 11:59:52;;;;;;;2.78;1.35;;;;;;;28.99;25.69;100379.06;4241815;28;20235;-71
2023/07/10 12:02:26;;;;;;;1.63;1.38;;;;;;;29.19;25.63;100367.16;4242473;28;20241;-70
2023/07/10 12:04:53;;;;;;;2.10;1.27;;;;;;;29.49;25.09;100368.38;4247786;28;20230;-70
2023/07/10 12:07:20;;;;;;;4.40;1.30;;;;;;;29.65;25.36;100374.81;4251689;28;20243;-71
2023/07/10 12:09:51;;;;;;;1.70;1.20;;;;;;;29.40;24.63;100368.09;4227483;28;20317;-72
2023/07/10 12:12:17;;;;;;;4.97;1.20;;;;;;;29.33;24.55;100366.66;4231658;28;20280;-70
2023/07/10 12:14:45;;;;;;;3.05;1.23;;;;;;;29.54;24.54;100356.41;4223395;28;20232;-72
2023/07/10 12:17:16;;;;;;;3.22;1.60;;;;;;;29.61;24.06;100362.53;4226912;28;20227;-71
2023/07/10 12:20:10;;;;;;;1.90;1.35;;;;;;;29.14;25.18;100352.38;4232893;28;20312;-69
2023/07/10 12:22:37;;;;;;;3.35;1.20;;;;;;;29.34;24.71;100352.47;4233400;28;21687;-67
2023/07/10 12:25:12;;;;;;;2.42;1.23;;;;;;;29.33;24.91;100359.16;4230117;28;20240;-68
2023/07/10 12:27:39;;;;;;;1.65;1.20;;;;;;;29.45;24.24;100358.91;4230017;28;20357;-73
2023/07/10 12:30:27;;;;;;;9.30;1.35;;;;;;;29.48;25.09;100360.31;4225635;28;20247;-70
2023/07/10 12:32:56;;;;;;;1.58;1.10;;;;;;;29.49;25.06;100364.78;4214541;28;20330;-71
2023/07/10 12:35:29;;;;;;;2.80;1.52;;;;;;;29.10;25.84;100366.00;4231653;28;20232;-70
2023/07/10 12:37:59;;;;;;;2.05;1.20;;;;;;;28.73;27.01;100353.91;4211269;28;20228;-71
2023/07/10 12:40:26;;;;;;;2.28;1.50;;;;;;;29.11;26.49;100342.59;4222970;28;20231;-71
2023/07/10 12:42:53;;;;;;;4.00;1.60;;;;;;;29.43;26.12;100351.91;4227926;28;23063;-72
2023/07/10 12:45:32;;;;;;;2.60;1.25;;;;;;;29.63;26.08;100351.97;4229789;28;20232;-73
2023/07/10 12:48:12;;;;;;;6.18;1.58;;;;;;;30.35;25.02;100337.97;4226060;28;20247;-73
2023/07/10 12:50:50;;;;;;;2.85;1.63;;;;;;;30.98;24.46;100339.47;4235163;28;20236;-70
2023/07/10 12:53:21;;;;;;;5.50;2.10;;;;;;;30.70;25.43;100337.34;4224342;28;20233;-70
2023/07/10 12:55:56;;;;;;;5.40;1.73;;;;;;;30.51;24.41;100330.41;4200942;28;20431;-70
2023/07/10 12:58:35;;;;;;;5.25;1.80;;;;;;;29.68;26.37;100335.22;4225999;28;20337;-70
2023/07/10 13:01:18;;;;;;;3.92;1.75;;;;;;;29.80;25.42;100332.16;4219016;28;20236;-72
2023/07/10 13:03:58;;;;;;;3.03;1.52;;;;;;;29.70;25.51;100327.41;4226265;28;20242;-69
2023/07/10 13:06:25;;;;;;;3.72;1.40;;;;;;;29.15;26.00;100335.38;4214149;28;20258;-68
2023/07/10 13:08:55;;;;;;;3.63;1.23;;;;;;;29.62;25.81;100329.91;4214436;28;20240;-69
2023/07/10 13:11:23;;;;;;;4.38;1.48;;;;;;;29.24;26.89;100322.56;4226626;28;20651;-74
2023/07/10 13:14:06;;;;;;;2.72;1.35;;;;;;;29.78;25.75;100319.59;4207221;28;23102;-69
2023/07/10 13:16:43;;;;;;;2.20;1.50;;;;;;;29.40;26.15;100314.25;4209516;28;21475;-68
2023/07/10 13:19:10;;;;;;;4.13;1.52;;;;;;;29.43;26.43;100324.88;4221226;28;21691;-69
2023/07/10 13:21:37;;;;;;;2.38;1.30;;;;;;;29.03;27.61;100320.84;4206468;28;22585;-72
2023/07/10 13:24:04;;;;;;;3.15;1.27;;;;;;;29.75;26.35;100321.00;4212901;28;20370;-70
2023/07/10 13:26:30;;;;;;;2.38;1.35;;;;;;;29.95;26.27;100314.56;4214373;28;20311;-70
2023/07/10 13:28:57;;;;;;;6.55;1.80;;;;;;;29.87;26.14;100307.59;4216717;28;20236;-80
2023/07/10 13:31:32;;;;;;;6.70;1.52;;;;;;;29.98;25.88;100313.22;4244526;28;20462;-73
2023/07/10 13:33:58;;;;;;;4.70;1.50;;;;;;;30.48;25.40;100308.63;4205352;28;20329;-78
2023/07/10 13:36:26;;;;;;;3.45;1.33;;;;;;;30.65;24.74;100322.28;4238171;28;20236;-75
2023/07/10 13:38:53;;;;;;;5.60;1.60;;;;;;;31.15;24.80;100315.94;4220703;28;20232;-76
2023/07/10 13:41:23;;;;;;;6.38;1.50;;;;;;;31.10;24.40;100304.75;4216902;28;22010;-68
2023/07/10 13:43:50;;;;;;;3.90;1.75;;;;;;;31.64;24.52;100308.59;4221782;28;20327;-72
2023/07/10 13:46:18;;;;;;;3.20;1.65;;;;;;;30.25;25.51;100301.69;4227831;28;21105;-72
2023/07/10 13:48:48;;;;;;;4.90;2.03;;;;;;;30.81;25.49;100297.06;4225540;28;22224;-64
2023/07/10 13:51:15;;;;;;;2.95;1.52;;;;;;;30.78;24.31;100294.84;4221866;28;20258;-68
2023/07/10 13:53:42;;;;;;;6.28;1.40;;;;;;;30.96;25.11;100282.19;4219470;28;22624;-73
2023/07/10 13:56:31;;;;;;;2.95;1.40;;;;;;;30.58;26.31;100279.00;4215927;28;20615;-55
2023/07/10 13:58:59;;;;;;;4.55;1.40;;;;;;;30.37;26.34;100278.22;4216865;28;20236;-71
2023/07/10 14:01:26;;;;;;;5.78;1.40;;;;;;;31.14;26.14;100275.94;4222213;28;20239;-71
2023/07/10 14:03:53;;;;;;;2.63;1.25;;;;;;;31.38;24.41;100280.81;4226546;28;20406;-67
2023/07/10 14:06:22;;;;;;;4.07;1.40;;;;;;;31.22;23.88;100277.28;4214904;28;21063;-68
2023/07/10 14:08:58;;;;;;;3.15;1.55;;;;;;;30.64;24.68;100261.94;4214424;28;20231;-70
2023/07/10 14:11:28;;;;;;;4.60;1.58;;;;;;;30.66;25.16;100258.88;4221776;28;20225;-70
2023/07/10 14:13:54;;;;;;;1.80;1.38;;;;;;;30.18;25.20;100260.13;4223674;28;20240;-71
2023/07/10 14:16:25;;;;;;;8.43;1.70;;;;;;;29.95;26.56;100261.56;4213129;28;23043;-72
2023/07/10 14:18:52;;;;;;;3.83;1.20;;;;;;;30.57;25.71;100264.19;4214659;28;20444;-73
2023/07/10 14:21:18;;;;;;;3.08;1.65;;;;;;;29.81;26.26;100257.63;4211638;28;20232;-74
2023/07/10 14:23:45;;;;;;;2.03;1.52;;;;;;;29.78;26.73;100255.44;4214653;28;20234;-71
2023/07/10 14:26:22;;;;;;;3.13;1.50;;;;;;;29.40;27.12;100247.34;4220504;28;20701;-69
2023/07/10 14:28:50;;;;;;;3.08;1.50;;;;;;;29.84;26.20;100248.72;4202187;28;20253;-66
2023/07/10 14:31:17;;;;;;;2.33;1.33;;;;;;;30.23;25.62;100239.72;4219645;28;20623;-72
2023/07/10 14:33:44;;;;;;;3.42;1.42;;;;;;;29.97;25.80;100238.97;4216886;28;20427;-72
2023/07/10 14:36:16;;;;;;;4.72;1.40;;;;;;;29.68;25.93;100248.72;4242821;28;20306;-71
2023/07/10 14:38:43;;;;;;;2.90;1.80;;;;;;;29.95;25.78;100247.59;4232145;28;20430;-70
2023/07/10 14:41:18;;;;;;;2.15;1.48;;;;;;;30.58;25.59;100253.88;4216840;28;20272;-70
2023/07/10 14:43:46;;;;;;;4.05;2.17;;;;;;;29.80;26.73;100250.38;4203801;28;20244;-74
2023/07/10 14:46:27;;;;;;;3.53;1.65;;;;;;;29.54;26.73;100251.25;4216022;28;20243;-73
2023/07/10 14:48:55;;;;;;;1.17;1.05;;;;;;;30.45;25.20;100235.72;4232578;28;20282;-71
2023/07/10 14:51:22;;;;;;;2.47;1.60;;;;;;;30.37;25.54;100233.53;4202595;28;20544;-75
2023/07/10 14:53:48;;;;;;;1.88;1.55;;;;;;;30.81;24.97;100232.78;4241424;28;20244;-73
2023/07/10 14:56:16;;;;;;;4.22;1.52;;;;;;;30.65;24.20;100224.47;4243930;28;20244;-75
2023/07/10 14:58:43;;;;;;;4.28;1.48;;;;;;;30.67;24.49;100224.19;4206674;28;23081;-74
2023/07/10 15:01:15;;;;;;;3.28;1.52;;;;;;;29.59;25.85;100228.09;4236820;28;20504;-73
2023/07/10 15:03:42;;;;;;;7.60;1.50;;;;;;;29.68;26.52;100218.06;4250262;28;20235;-72
2023/07/10 15:06:25;;;;;;;2.08;1.42;;;;;;;30.63;25.63;100223.09;4198182;28;20242;-76
2023/07/10 15:08:53;;;;;;;5.13;1.50;;;;;;;31.38;24.73;100218.44;4212510;28;20241;-71
2023/07/10 15:11:21;;;;;;;3.28;1.60;;;;;;;31.49;23.97;100227.59;4235736;28;20247;-77
2023/07/10 15:13:48;;;;;;;3.28;1.55;;;;;;;30.84;23.40;100218.25;4237844;28;20236;-73
2023/07/10 15:16:22;;;;;;;3.30;1.30;;;;;;;30.83;23.25;100225.78;4259908;28;20235;-72
2023/07/10 15:18:50;;;;;;;3.10;1.45;;;;;;;30.95;23.56;100214.25;4212465;28;20248;-75
2023/07/10 15:21:20;;;;;;;4.20;1.38;;;;;;;30.98;23.17;100216.47;4226664;28;20232;-71
2023/07/10 15:23:47;;;;;;;3.05;1.40;;;;;;;30.39;24.06;100217.34;4206508;28;22032;-75
2023/07/10 15:26:15;;;;;;;4.40;1.02;;;;;;;30.18;24.05;100217.41;4211545;28;20232;-75
2023/07/10 15:28:41;;;;;;;4.25;1.30;;;;;;;30.39;23.27;100215.38;4219842;28;20258;-72
2023/07/10 15:31:09;;;;;;;1.55;1.00;;;;;;;30.28;23.68;100219.34;4230133;28;20415;-75
2023/07/10 15:33:39;;;;;;;2.78;1.45;;;;;;;30.16;23.94;100216.88;4209585;28;20600;-73
2023/07/10 15:36:06;;;;;;;1.73;1.10;;;;;;;30.38;23.68;100221.25;4219042;28;20325;-73
2023/07/10 15:38:33;;;;;;;1.70;1.50;;;;;;;30.57;23.31;100213.09;4217138;28;21614;-71
2023/07/10 15:41:01;;;;;;;2.05;1.40;;;;;;;30.36;23.24;100210.38;4222158;28;21326;-77
2023/07/10 15:43:34;;;;;;;3.38;1.23;;;;;;;30.75;23.01;100204.03;4222887;28;21012;-77
2023/07/10 15:46:01;;;;;;;3.45;1.20;;;;;;;30.74;23.49;100198.75;4219666;28;20224;-70
2023/07/10 15:48:28;;;;;;;4.82;1.70;;;;;;;30.72;23.15;100212.16;4214003;28;20255;-76
2023/07/10 15:50:56;;;;;;;2.50;1.48;;;;;;;30.56;24.12;100206.66;4228065;28;21843;-71
2023/07/10 15:53:28;;;;;;;2.00;1.20;;;;;;;31.00;23.57;100212.56;4198687;28;20716;-71
2023/07/10 15:55:55;;;;;;;2.35;1.10;;;;;;;30.42;23.92;100211.16;4210696;28;20605;-71
2023/07/10 15:58:24;;;;;;;1.58;1.30;;;;;;;29.94;24.30;100198.50;4201646;28;21618;-75
2023/07/10 16:00:55;;;;;;;3.75;1.40;;;;;;;29.95;24.82;100208.53;4184216;28;20782;-73
2023/07/10 16:03:30;;;;;;;3.28;1.48;;;;;;;29.85;24.78;100211.31;4216997;28;20259;-72
2023/07/10 16:06:00;;;;;;;7.20;1.50;;;;;;;29.55;25.25;100197.13;4210970;28;21532;-73
2023/07/10 16:08:29;;;;;;;5.53;1.63;;;;;;;29.24;25.65;100202.69;4207099;28;20465;-78
2023/07/10 16:10:58;;;;;;;6.03;1.52;;;;;;;29.37;25.36;100206.91;4195902;28;20294;-72
2023/07/10 16:13:26;;;;;;;3.30;1.50;;;;;;;29.47;25.39;100208.03;4195044;28;20239;-72
2023/07/10 16:15:53;;;;;;;4.82;1.50;;;;;;;29.31;25.37;100207.19;4213908;28;20318;-71
2023/07/10 16:18:28;;;;;;;2.30;1.52;;;;;;;29.22;25.89;100204.94;4205444;28;22859;-74
2023/07/10 16:20:56;;;;;;;9.48;1.60;;;;;;;29.40;25.77;100206.38;4201059;28;20599;-72
2023/07/10 16:23:29;;;;;;;2.70;1.40;;;;;;;29.51;25.96;100214.72;4193243;28;20240;-69
2023/07/10 16:25:57;;;;;;;3.72;1.60;;;;;;;29.48;25.99;100207.75;4200155;28;20260;-72
2023/07/10 16:28:25;;;;;;;2.05;1.60;;;;;;;29.31;26.28;100202.47;4201484;28;21098;-70
2023/07/10 16:30:52;;;;;;;4.22;1.67;;;;;;;29.06;26.72;100203.25;4195574;28;20312;-73
2023/07/10 16:33:22;;;;;;;5.40;1.35;;;;;;;28.92;27.03;100212.16;4201773;28;21624;-71
2023/07/10 16:35:51;;;;;;;2.65;1.60;;;;;;;28.67;27.56;100215.66;4212265;28;22672;-70
2023/07/10 16:38:20;;;;;;;6.38;1.58;;;;;;;28.20;28.19;100211.88;4204345;28;20247;-72
2023/07/10 16:40:55;;;;;;;4.18;1.88;;;;;;;28.50;28.92;100215.91;4189609;28;20232;-70
2023/07/10 16:43:33;;;;;;;3.67;1.40;;;;;;;28.48;28.55;100206.16;4184622;28;20755;-69
2023/07/10 16:46:00;;;;;;;5.57;1.60;;;;;;;28.54;28.08;100213.41;4203399;28;22266;-71
2023/07/10 16:48:28;;;;;;;5.60;1.58;;;;;;;28.43;28.43;100213.38;4198677;28;20443;-69
2023/07/10 16:50:58;;;;;;;1.67;1.10;;;;;;;28.48;28.16;100209.75;4183619;28;20249;-74
2023/07/10 16:53:31;;;;;;;2.15;1.27;;;;;;;28.39;28.72;100209.47;4205421;28;20249;-69
2023/07/10 16:56:01;;;;;;;3.35;1.27;;;;;;;28.39;28.36;100203.06;4199080;28;22856;-72
2023/07/10 16:58:30;;;;;;;2.50;1.25;;;;;;;28.23;28.98;100199.38;4210175;28;21751;-72
2023/07/10 17:00:57;;;;;;;4.97;1.55;;;;;;;28.38;28.86;100202.22;4196169;28;22186;-72
2023/07/10 17:03:32;;;;;;;7.10;1.60;;;;;;;28.39;28.94;100197.50;4166431;28;21662;-72
2023/07/10 17:06:00;;;;;;;3.78;1.42;;;;;;;28.40;28.97;100207.53;4204616;28;21126;-70
2023/07/10 17:08:28;;;;;;;1.67;1.20;;;;;;;28.31;29.01;100204.41;4208500;28;21558;-74
2023/07/10 17:10:57;;;;;;;4.28;1.50;;;;;;;28.22;29.24;100206.88;4201199;28;20247;-73
2023/07/10 17:13:26;;;;;;;3.08;1.60;;;;;;;28.20;29.49;100199.94;4197890;28;22903;-72
2023/07/10 17:15:55;;;;;;;8.40;1.50;;;;;;;28.02;29.91;100203.97;4212987;28;20242;-71
2023/07/10 17:18:27;;;;;;;8.93;1.55;;;;;;;27.93;29.52;100200.84;4195735;28;20349;-75
2023/07/10 17:20:56;;;;;;;3.45;1.35;;;;;;;27.77;29.98;100191.59;4198381;28;20236;-69
2023/07/10 17:23:31;;;;;;;5.97;1.45;;;;;;;27.66;30.00;100194.28;4197387;28;20235;-69
2023/07/10 17:25:59;;;;;;;6.25;1.50;;;;;;;27.61;29.80;100193.41;4202521;28;20792;-74
2023/07/10 17:28:35;;;;;;;6.57;1.50;;;;;;;27.38;29.60;100189.88;4194635;28;20243;-72
2023/07/10 17:31:26;;;;;;;5.78;2.05;;;;;;;27.27;30.08;100185.34;4210185;28;20974;-71
2023/07/10 17:33:57;;;;;;;4.30;1.60;;;;;;;27.16;30.08;100187.22;4203982;28;20240;-69
2023/07/10 17:36:25;;;;;;;4.95;2.30;;;;;;;27.12;30.35;100184.13;4211099;28;21838;-74
2023/07/10 17:38:52;;;;;;;5.90;3.00;;;;;;;26.91;30.77;100176.69;4191094;28;20233;-70
2023/07/10 17:41:21;;;;;;;6.47;2.20;;;;;;;26.98;30.51;100180.09;4196723;28;20286;-71
2023/07/10 17:43:52;;;;;;;6.40;2.13;;;;;;;26.93;30.28;100182.84;4205560;28;20237;-71
2023/07/10 17:46:20;;;;;;;10.00;1.70;;;;;;;26.70;31.68;100173.69;4222256;28;22667;-73
2023/07/10 17:48:46;;;;;;;5.70;1.77;;;;;;;26.65;30.71;100168.94;4199921;28;20242;-72
2023/07/10 17:51:24;;;;;;;4.63;1.70;;;;;;;26.59;30.16;100172.72;4208581;28;21857;-69
2023/07/10 17:53:51;;;;;;;2.00;1.48;;;;;;;26.57;30.56;100173.00;4197533;28;21906;-72
2023/07/10 17:56:18;;;;;;;4.35;1.42;;;;;;;26.49;30.26;100162.34;4204279;28;20496;-71
2023/07/10 17:58:45;;;;;;;9.18;1.80;;;;;;;26.44;29.97;100173.41;4204474;28;20313;-71
2023/07/10 18:05:57;;;;;;;3.33;1.80;;;;;;;26.35;30.57;100161.94;4257833;28;20600;-72
2023/07/10 18:08:26;;;;;;;6.50;1.70;;;;;;;26.20;30.58;100162.56;4237164;28;20227;-69
2023/07/10 18:11:01;;;;;;;11.90;1.90;;;;;;;26.07;30.71;100161.00;4234886;28;22569;-73
2023/07/10 18:13:33;;;;;;;6.25;1.60;;;;;;;25.93;30.94;100160.53;4249413;28;20240;-71
2023/07/10 18:16:00;;;;;;;6.15;1.80;;;;;;;26.17;30.37;100160.31;4223598;28;20228;-72
2023/07/10 18:18:27;;;;;;;6.95;1.85;;;;;;;26.03;30.80;100156.22;4236005;28;20231;-72
2023/07/10 18:20:54;;;;;;;7.22;1.60;;;;;;;25.98;31.20;100153.38;4248561;28;20227;-72
2023/07/10 18:23:26;;;;;;;5.75;1.50;;;;;;;25.96;31.01;100148.09;4230359;28;21114;-73
2023/07/10 18:25:55;;;;;;;7.25;1.80;;;;;;;25.79;31.42;100150.94;4228845;28;20288;-68
2023/07/10 18:28:26;;;;;;;6.53;1.92;;;;;;;25.71;31.59;100148.59;4219911;28;20231;-75
2023/07/10 18:30:55;;;;;;;10.60;2.10;;;;;;;25.55;32.21;100151.13;4224087;28;22517;-69
2023/07/10 18:33:23;;;;;;;6.35;1.75;;;;;;;25.38;32.48;100141.97;4222478;28;20289;-68
2023/07/10 18:35:52;;;;;;;10.07;2.03;;;;;;;25.27;32.63;100147.34;4253467;28;21124;-68
2023/07/10 18:38:21;;;;;;;6.47;1.85;;;;;;;25.08;33.05;100149.50;4233583;28;20266;-67
2023/07/10 18:40:50;;;;;;;7.13;2.08;;;;;;;25.08;33.04;100154.22;4234928;28;20240;-68
2023/07/10 18:43:20;;;;;;;3.23;1.80;;;;;;;25.12;33.04;100156.25;4237634;28;21020;-73
2023/07/10 18:45:47;;;;;;;11.82;2.05;;;;;;;25.07;33.45;100150.63;4217953;28;20229;-74
2023/07/10 18:48:20;;;;;;;8.13;1.50;;;;;;;24.96;33.57;100149.59;4208984;28;20240;-72
2023/07/10 18:51:05;;;;;;;8.50;2.05;;;;;;;24.89;34.00;100145.31;4235768;28;20239;-65
2023/07/10 18:53:32;;;;;;;7.05;1.80;;;;;;;24.80;33.67;100139.34;4248414;28;20236;-70
2023/07/10 18:55:59;;;;;;;5.93;2.10;;;;;;;24.76;33.93;100147.31;4218925;28;20242;-71
2023/07/10 18:58:28;;;;;;;6.35;1.45;;;;;;;24.83;34.04;100152.69;4253286;28;20235;-73
2023/07/10 19:00:56;;;;;;;4.90;1.73;;;;;;;24.77;33.96;100156.44;4232516;28;22180;-70
2023/07/10 19:03:23;;;;;;;5.28;2.03;;;;;;;24.83;33.45;100155.44;4244361;28;20840;-73
2023/07/10 19:05:52;;;;;;;8.07;1.85;;;;;;;24.74;34.07;100155.03;4233134;28;20301;-69
2023/07/10 19:08:29;;;;;;;16.73;2.67;;;;;;;24.59;34.82;100146.41;4223643;28;20243;-65
2023/07/10 19:10:57;;;;;;;9.20;1.88;;;;;;;24.38;35.35;100148.78;4273498;28;21934;-72
2023/07/10 19:13:25;;;;;;;6.65;1.52;;;;;;;24.41;35.22;100152.97;4227769;28;20270;-70
2023/07/10 19:15:55;;;;;;;7.63;1.67;;;;;;;24.36;35.01;100151.78;4224227;28;20225;-69
2023/07/10 19:18:28;;;;;;;4.33;2.00;;;;;;;24.37;35.01;100147.94;4220245;28;20234;-71
2023/07/10 19:20:55;;;;;;;6.17;1.50;;;;;;;24.33;35.37;100145.91;4234464;28;20269;-67
2023/07/10 19:23:27;;;;;;;8.85;1.70;;;;;;;24.22;35.08;100142.09;4209038;28;20233;-72
2023/07/10 19:25:54;;;;;;;5.43;1.93;;;;;;;24.29;35.34;100144.72;4222627;28;20234;-71
2023/07/10 19:28:23;;;;;;;4.97;1.50;;;;;;;24.32;35.13;100147.00;4201891;28;21170;-71
2023/07/10 19:30:59;;;;;;;8.50;2.00;;;;;;;24.49;34.71;100149.81;4223500;28;20236;-69
2023/07/10 19:33:52;;;;;;;12.73;2.13;;;;;;;24.37;35.51;100147.94;4237817;28;20643;-71
2023/07/10 19:36:18;;;;;;;4.80;1.83;;;;;;;24.30;35.49;100151.94;4234124;28;20227;-66
2023/07/10 19:38:46;;;;;;;9.30;2.17;;;;;;;24.27;35.75;100150.50;4218553;28;21497;-64
2023/07/10 19:41:13;;;;;;;9.70;1.90;;;;;;;24.21;35.37;100155.09;4234250;28;20297;-65
2023/07/10 19:43:39;;;;;;;8.33;2.00;;;;;;;24.32;34.92;100152.53;4221476;28;20233;-65
2023/07/10 19:46:17;;;;;;;8.35;2.22;;;;;;;24.29;35.21;100153.03;4217147;28;20227;-66
2023/07/10 19:48:44;;;;;;;6.00;1.95;;;;;;;24.42;34.79;100154.66;4214664;28;20602;-65
2023/07/10 19:51:10;;;;;;;4.20;2.00;;;;;;;24.43;35.07;100153.59;4230151;28;20313;-65
2023/07/10 19:53:37;;;;;;;6.20;1.60;;;;;;;24.38;34.26;100159.84;4224672;28;20309;-64
2023/07/10 19:56:13;;;;;;;6.82;1.95;;;;;;;24.24;35.68;100155.69;4217209;28;20231;-67
2023/07/10 19:58:42;;;;;;;2.92;1.63;;;;;;;24.19;35.64;100161.97;4224891;28;20239;-67
2023/07/10 20:01:11;;;;;;;6.95;1.90;;;;;;;24.10;36.01;100160.66;4215653;28;21671;-65
2023/07/10 20:03:39;;;;;;;5.25;1.90;;;;;;;24.09;35.75;100170.03;4231676;28;20251;-66
2023/07/10 20:06:20;;;;;;;4.70;1.70;;;;;;;24.10;35.93;100161.47;4215272;28;23248;-66
2023/07/10 20:08:47;;;;;;;5.40;1.80;;;;;;;24.09;35.79;100162.59;4219428;28;20413;-67
2023/07/10 20:11:14;;;;;;;5.17;1.80;;;;;;;24.13;35.52;100143.59;4205653;28;20241;-65
2023/07/10 20:13:43;;;;;;;6.75;2.13;;;;;;;24.16;35.41;100137.53;4222994;28;20239;-66
2023/07/10 20:16:18;;;;;;;4.82;2.10;;;;;;;24.02;35.79;100131.44;4211922;28;20321;-74
2023/07/10 20:18:47;;;;;;;3.60;1.65;;;;;;;24.07;35.47;100122.41;4223550;28;20498;-74
2023/07/10 20:21:13;;;;;;;7.20;1.67;;;;;;;24.03;35.50;100116.53;4220248;28;20378;-75
2023/07/10 20:23:40;;;;;;;9.97;1.87;;;;;;;24.02;36.00;100114.84;4213753;28;20289;-75
2023/07/10 20:26:27;;;;;;;4.97;1.90;;;;;;;24.02;35.99;100114.84;4226306;28;22165;-74
2023/07/10 20:28:53;;;;;;;6.33;1.80;;;;;;;23.94;36.22;100116.09;4219761;28;20228;-72
2023/07/10 20:31:20;;;;;;;5.47;2.00;;;;;;;23.85;36.43;100118.38;4216973;28;21351;-72
2023/07/10 20:33:49;;;;;;;7.20;2.30;;;;;;;23.85;36.81;100111.97;4215193;28;20230;-72
2023/07/10 20:36:21;;;;;;;5.07;1.83;;;;;;;23.86;36.88;100097.94;4204344;28;20241;-72
2023/07/10 20:38:50;;;;;;;7.73;2.17;;;;;;;23.79;37.15;100091.72;4219265;28;20236;-73
2023/07/10 20:41:23;;;;;;;6.18;1.85;;;;;;;23.64;37.35;100099.66;4218068;28;20239;-74
2023/07/10 20:43:49;;;;;;;6.07;2.00;;;;;;;23.51;37.86;100098.00;4213873;28;22859;-73
2023/07/10 20:46:22;;;;;;;6.30;2.33;;;;;;;23.48;37.73;100099.31;4214085;28;20236;-73
2023/07/10 20:48:50;;;;;;;5.17;1.80;;;;;;;23.56;37.50;100101.72;4217333;28;20724;-76
2023/07/10 20:51:20;;;;;;;7.27;1.87;;;;;;;23.70;36.70;100099.53;4230638;28;20286;-74
2023/07/10 20:53:50;;;;;;;4.50;1.80;;;;;;;23.67;36.54;100101.94;4197660;28;20238;-73
2023/07/10 20:56:25;;;;;;;4.63;1.80;;;;;;;23.77;36.38;100104.06;4203783;28;23159;-73
2023/07/10 20:58:53;;;;;;;3.67;1.60;;;;;;;23.74;36.53;100102.63;4223458;28;20353;-73
2023/07/10 21:01:30;;;;;;;6.33;1.77;;;;;;;23.68;36.96;100098.91;4223178;28;20240;-72
2023/07/10 21:03:57;;;;;;;4.57;1.75;;;;;;;23.58;37.04;100099.53;4221003;28;21601;-77
2023/07/10 21:06:29;;;;;;;4.17;1.60;;;;;;;23.45;37.29;100090.69;4227415;28;20244;-73
2023/07/10 21:08:59;;;;;;;4.53;1.67;;;;;;;23.61;37.25;100084.38;4230267;28;20318;-74
2023/07/10 21:11:28;;;;;;;4.55;1.48;;;;;;;23.60;36.95;100082.72;4225490;28;20295;-74
2023/07/10 21:13:55;;;;;;;2.38;1.30;;;;;;;23.59;37.12;100086.56;4219059;28;20394;-75
2023/07/10 21:16:22;;;;;;;4.50;1.50;;;;;;;23.50;37.48;100086.09;4204643;28;20451;-48
2023/07/10 21:18:50;;;;;;;3.55;1.75;;;;;;;23.39;37.68;100089.72;4213941;28;20401;-53
2023/07/10 21:21:17;;;;;;;4.40;1.60;;;;;;;23.27;38.28;100093.31;4216120;28;20242;-54
2023/07/10 21:23:45;;;;;;;4.45;1.70;;;;;;;23.22;37.92;100086.84;4226389;28;20225;-52
2023/07/10 21:26:17;;;;;;;3.25;1.85;;;;;;;23.21;38.10;100096.22;4204025;28;20248;-51
2023/07/10 21:28:46;;;;;;;4.00;1.90;;;;;;;23.21;38.09;100094.28;4218370;28;21533;-46
2023/07/10 21:31:18;;;;;;;10.03;1.80;;;;;;;23.17;38.63;100094.94;4211370;28;20232;-53
2023/07/10 21:33:46;;;;;;;7.07;2.07;;;;;;;23.15;38.22;100092.44;4206666;28;20233;-50
2023/07/10 21:36:14;;;;;;;3.00;1.70;;;;;;;23.11;38.02;100092.09;4215301;28;25490;-52
2023/07/10 21:38:40;;;;;;;10.53;1.53;;;;;;;23.14;38.08;100098.22;4223347;28;20260;-50
2023/07/10 21:41:16;;;;;;;6.63;1.97;;;;;;;23.17;37.84;100095.84;4223256;28;20236;-49
2023/07/10 21:43:43;;;;;;;9.23;1.70;;;;;;;23.13;38.25;100091.84;4218044;28;20236;-52
2023/07/10 21:46:13;;;;;;;4.90;1.50;;;;;;;23.08;38.22;100086.19;4214328;28;20607;-66
2023/07/10 21:48:40;;;;;;;3.63;1.47;;;;;;;23.10;38.13;100089.56;4219142;28;20228;-67
2023/07/10 21:51:11;;;;;;;8.80;1.90;;;;;;;23.08;38.30;100087.03;4224748;28;21944;-65
2023/07/10 21:53:37;;;;;;;4.63;1.70;;;;;;;23.03;38.19;100081.38;4205373;28;20395;-65
2023/07/10 21:56:04;;;;;;;2.28;1.50;;;;;;;22.98;38.01;100084.03;4224108;28;20296;-64
2023/07/10 21:58:34;;;;;;;6.30;1.87;;;;;;;22.94;38.24;100074.53;4219466;28;20230;-68
2023/07/10 22:01:01;;;;;;;4.27;1.73;;;;;;;22.98;38.00;100072.13;4221966;28;20234;-66
2023/07/10 22:03:30;;;;;;;6.13;1.88;;;;;;;22.97;38.09;100068.56;4217336;28;20238;-65
2023/07/10 22:06:01;;;;;;;3.30;1.85;;;;;;;23.05;37.64;100064.56;4209541;28;20642;-65
2023/07/10 22:08:28;;;;;;;6.30;1.83;;;;;;;23.12;37.43;100068.06;4215277;28;20234;-65
2023/07/10 22:10:56;;;;;;;4.72;1.80;;;;;;;23.13;37.96;100069.75;4219965;28;20233;-65
2023/07/10 22:13:28;;;;;;;4.87;1.83;;;;;;;23.13;38.00;100061.47;4214568;28;20232;-65
2023/07/10 22:15:55;;;;;;;7.03;1.90;;;;;;;23.09;37.87;100071.31;4215658;28;20303;-66
2023/07/10 22:18:22;;;;;;;6.25;1.80;;;;;;;23.06;38.19;100071.78;4217014;28;20508;-65
2023/07/10 22:20:51;;;;;;;7.88;2.00;;;;;;;23.07;37.94;100063.28;4228989;28;20266;-46
2023/07/10 22:23:19;;;;;;;3.85;2.05;;;;;;;23.11;38.63;100066.41;4198238;28;20339;-49
2023/07/10 22:25:48;;;;;;;5.70;2.30;;;;;;;23.09;37.65;100072.16;4206610;28;20240;-50
2023/07/10 22:28:21;;;;;;;3.13;1.70;;;;;;;23.07;37.63;100065.19;4213405;28;25499;-49
2023/07/10 22:30:51;;;;;;;12.20;1.60;;;;;;;23.11;37.41;100063.66;4232616;28;20230;-49
2023/07/10 22:33:18;;;;;;;5.20;1.60;;;;;;;23.00;37.79;100068.06;4199587;28;20239;-49
2023/07/10 22:35:46;;;;;;;4.07;1.90;;;;;;;23.08;37.54;100061.34;4221344;28;20682;-48
2023/07/10 22:38:15;;;;;;;7.73;2.10;;;;;;;23.14;37.26;100063.16;4220859;28;20838;-48
2023/07/10 22:40:51;;;;;;;3.70;1.77;;;;;;;23.03;36.84;100070.34;4224624;28;20392;-50
2023/07/10 22:43:25;;;;;;;2.57;1.40;;;;;;;22.91;36.53;100084.13;4213854;28;20249;-49
2023/07/10 22:45:51;;;;;;;4.00;1.70;;;;;;;22.96;36.51;100086.19;4217146;28;20244;-49
2023/07/10 22:48:18;;;;;;;3.83;1.50;;;;;;;22.91;36.93;100088.84;4212123;28;20854;-46
2023/07/10 22:50:45;;;;;;;5.13;2.10;;;;;;;22.91;36.94;100091.59;4216240;28;20294;-48
2023/07/10 22:53:12;;;;;;;3.90;1.50;;;;;;;22.97;38.13;100101.69;4226210;28;20298;-47
2023/07/10 22:55:39;;;;;;;3.80;1.53;;;;;;;22.92;36.59;100104.31;4220694;28;20265;-52
2023/07/10 22:58:06;;;;;;;4.53;1.63;;;;;;;23.01;36.83;100104.81;4221803;28;20241;-48
2023/07/10 23:00:33;;;;;;;5.03;1.53;;;;;;;22.95;37.14;100103.81;4213920;28;23400;-48
2023/07/10 23:03:00;;;;;;;1.77;1.20;;;;;;;22.92;37.55;100110.66;4208489;28;22238;-47
2023/07/10 23:05:30;;;;;;;4.93;1.73;;;;;;;22.90;38.25;100123.84;4218099;28;20239;-50
2023/07/10 23:07:57;;;;;;;4.03;1.60;;;;;;;22.89;38.35;100130.44;4221075;28;20265;-51
2023/07/10 23:10:26;;;;;;;5.43;1.60;;;;;;;22.81;42.65;100129.97;4216225;28;20247;-53
2023/07/10 23:12:52;;;;;;;3.17;1.63;;;;;;;22.70;43.06;100131.59;4196977;28;20236;-48
2023/07/10 23:15:20;;;;;;;6.80;1.90;;;;;;;22.25;45.81;100130.06;4221225;28;20244;-50
2023/07/10 23:17:47;;;;;;;6.43;2.20;;;;;;;21.96;51.15;100116.03;4219083;28;20334;-50
2023/07/10 23:20:24;;;;;;;5.77;2.30;;;;;;;21.19;56.65;100126.31;4221113;28;21565;-48
2023/07/10 23:22:52;;;;;;;11.73;2.10;;;;;;;20.24;61.17;100121.69;4228401;28;22290;-50
2023/07/10 23:25:20;;;;;;;7.03;1.97;;;;;;;19.44;63.47;100128.25;4225263;28;20330;-46
2023/07/10 23:27:48;;;;;;;7.63;2.40;;;;;;;18.99;66.68;100135.25;4218872;28;20244;-47
2023/07/10 23:30:16;;;;;;;7.03;2.00;;;;;;;18.74;66.97;100125.91;4228588;28;20669;-46
2023/07/10 23:32:46;;;;;;;9.10;2.57;;;;;;;18.05;73.19;100124.03;4223528;28;20949;-47
2023/07/10 23:35:13;;;;;;;6.10;2.20;;;;;;;17.82;71.93;100129.81;4221097;28;20266;-46
2023/07/10 23:37:40;;;;;;;8.23;2.50;;;;;;;17.58;74.19;100133.88;4230009;28;20319;-47